Terminal Aerodrome Forecast
Issued by NWS

Home | Current Version | Previous Version | Text Only | Print | Product List | Glossary On
Versions: 1 2 3 4 5 6 7 8 9 10 11 12 13 14 15 16 17 18 19 20
000
FTUS43 KDTX 271721
TAFDET
TAF
KDET 271721Z 2718/2818 33006KT P6SM OVC030
     FM272100 VRB04KT P6SM BKN040
     FM272300 00000KT P6SM SCT045
     FM280100 17003KT P6SM SKC
     FM281100 VRB03KT 4SM BR FEW030
     FM281400 19005KT P6SM SCT045=

USA.gov is the U.S. government's official web portal to all federal, state and local government web resources and services.